createdAt,value
2023-04-19T00:00:19.864Z,7.80
2023-04-19T00:02:49.623Z,8.23
2023-04-19T00:05:16.771Z,8.20
2023-04-19T00:07:43.659Z,7.83
2023-04-19T00:10:10.835Z,8.67
2023-04-19T00:12:37.778Z,8.17
2023-04-19T00:15:06.121Z,8.47
2023-04-19T00:17:34.637Z,9.03
2023-04-19T00:20:01.698Z,9.43
2023-04-19T00:22:28.797Z,8.77
2023-04-19T00:24:55.931Z,9.17
2023-04-19T00:27:23.363Z,8.90
2023-04-19T00:29:50.496Z,8.90
2023-04-19T00:32:17.753Z,8.80
2023-04-19T00:34:44.867Z,8.83
2023-04-19T00:37:11.863Z,9.43
2023-04-19T00:39:38.722Z,9.67
2023-04-19T00:42:05.834Z,8.97
2023-04-19T00:44:32.852Z,8.80
2023-04-19T00:47:00.687Z,8.87
2023-04-19T00:49:28.304Z,9.10
2023-04-19T00:51:55.162Z,8.97
2023-04-19T00:54:22.661Z,8.23
2023-04-19T00:56:49.945Z,8.90
2023-04-19T00:59:17.746Z,8.27
2023-04-19T01:01:44.950Z,8.00
2023-04-19T01:04:12.262Z,8.30
2023-04-19T01:06:40.495Z,8.40
2023-04-19T01:09:07.490Z,8.13
2023-04-19T01:11:34.860Z,8.73
2023-04-19T01:14:01.736Z,7.97
2023-04-19T01:16:29.128Z,8.17
2023-04-19T01:18:56.496Z,7.97
2023-04-19T01:21:23.469Z,8.20
2023-04-19T01:23:50.960Z,9.03
2023-04-19T01:26:19.340Z,8.27
2023-04-19T01:28:46.397Z,7.70
2023-04-19T01:31:13.283Z,8.07
2023-04-19T01:33:40.224Z,7.43
2023-04-19T01:36:07.740Z,7.20
2023-04-19T01:38:35.456Z,7.87
2023-04-19T01:41:02.636Z,7.80
2023-04-19T01:43:29.605Z,7.50
2023-04-19T01:45:56.481Z,7.30
2023-04-19T01:48:23.324Z,7.90
2023-04-19T01:50:50.465Z,7.20
2023-04-19T01:53:17.373Z,7.47
2023-04-19T01:55:44.393Z,7.87
2023-04-19T01:58:11.307Z,7.23
2023-04-19T02:00:38.082Z,7.37
2023-04-19T02:03:05.319Z,7.03
2023-04-19T02:05:32.326Z,6.87
2023-04-19T02:07:59.198Z,6.33
2023-04-19T02:10:26.441Z,6.70
2023-04-19T02:12:53.851Z,7.10
2023-04-19T02:15:20.987Z,6.40
2023-04-19T02:17:48.312Z,6.37
2023-04-19T02:20:15.298Z,6.90
2023-04-19T02:22:44.019Z,6.73
2023-04-19T02:25:11.132Z,6.83
2023-04-19T02:27:38.127Z,6.70
2023-04-19T02:30:05.613Z,6.50
2023-04-19T02:32:32.606Z,7.20
2023-04-19T02:34:59.776Z,6.47
2023-04-19T02:37:26.640Z,6.97
2023-04-19T02:39:53.580Z,6.77
2023-04-19T02:42:20.668Z,6.50
2023-04-19T02:44:47.549Z,6.80
2023-04-19T02:47:14.669Z,6.50
2023-04-19T02:49:42.832Z,7.07
2023-04-19T02:52:09.827Z,6.80
2023-04-19T02:54:36.732Z,7.30
2023-04-19T02:57:03.817Z,6.80
2023-04-19T02:59:30.779Z,6.17
2023-04-19T03:01:57.621Z,6.37
2023-04-19T03:04:24.567Z,6.90
2023-04-19T03:06:53.201Z,6.70
2023-04-19T03:09:20.114Z,6.50
2023-04-19T03:11:46.993Z,6.47
2023-04-19T03:14:14.289Z,6.50
2023-04-19T03:16:41.992Z,6.70
2023-04-19T03:19:08.989Z,6.50
2023-04-19T03:21:36.014Z,6.63
2023-04-19T03:25:14.451Z,6.23
2023-04-19T03:27:41.389Z,5.97
2023-04-19T03:30:08.858Z,5.80
2023-04-19T03:32:35.773Z,5.93
2023-04-19T03:35:02.733Z,6.17
2023-04-19T03:37:29.853Z,5.60
2023-04-19T03:39:56.797Z,5.57
2023-04-19T03:42:23.885Z,6.33
2023-04-19T03:44:51.377Z,6.63
2023-04-19T03:47:18.385Z,6.20
2023-04-19T03:49:45.194Z,6.20
2023-04-19T03:52:11.956Z,5.57
2023-04-19T03:54:38.636Z,6.37
2023-04-19T03:57:06.253Z,5.93
2023-04-19T03:59:33.351Z,5.63
2023-04-19T04:02:00.461Z,5.97
2023-04-19T04:04:27.793Z,5.90
2023-04-19T04:06:54.895Z,5.73
2023-04-19T04:09:21.929Z,5.67
2023-04-19T04:11:49.009Z,5.30
2023-04-19T04:14:16.440Z,5.57
2023-04-19T04:16:44.106Z,5.67
2023-04-19T04:19:11.203Z,5.10
2023-04-19T04:21:38.303Z,5.63
2023-04-19T04:24:05.670Z,5.20
2023-04-19T04:26:34.168Z,5.27
2023-04-19T04:29:03.195Z,5.13
2023-04-19T04:31:30.278Z,5.30
2023-04-19T04:33:57.249Z,5.40
2023-04-19T04:36:24.113Z,4.97
2023-04-19T04:38:51.365Z,4.67
2023-04-19T04:41:18.267Z,5.00
2023-04-19T04:43:45.833Z,5.13
2023-04-19T04:46:12.732Z,4.90
2023-04-19T04:48:39.564Z,4.93
2023-04-19T04:51:06.559Z,4.23
2023-04-19T04:53:33.533Z,5.00
2023-04-19T04:56:00.469Z,5.27
2023-04-19T04:58:27.384Z,4.17
2023-04-19T05:00:54.873Z,5.00
2023-04-19T05:03:21.846Z,3.90
2023-04-19T05:05:48.790Z,3.70
2023-04-19T05:08:15.764Z,3.77
2023-04-19T05:10:42.731Z,3.33
2023-04-19T05:13:09.587Z,3.33
2023-04-19T05:15:36.558Z,3.27
2023-04-19T05:18:03.585Z,3.00
2023-04-19T05:20:30.628Z,3.30
2023-04-19T05:22:58.820Z,3.40
2023-04-19T05:25:26.028Z,3.20
2023-04-19T05:27:53.092Z,3.17
2023-04-19T05:30:20.250Z,3.17
2023-04-19T05:32:47.459Z,2.80
2023-04-19T05:35:14.475Z,3.07
2023-04-19T05:37:41.950Z,3.27
2023-04-19T05:40:12.711Z,3.17
2023-04-19T05:42:39.814Z,2.90
2023-04-19T05:45:07.691Z,3.43
2023-04-19T05:47:34.677Z,2.67
2023-04-19T05:50:01.617Z,2.80
2023-04-19T05:52:28.607Z,2.97
2023-04-19T05:54:55.740Z,2.63
2023-04-19T05:57:22.851Z,2.60
2023-04-19T05:59:49.744Z,3.00
2023-04-19T06:02:16.922Z,2.50
2023-04-19T06:04:44.269Z,2.80
2023-04-19T06:07:26.640Z,2.90
2023-04-19T06:09:58.415Z,2.93
2023-04-19T06:12:25.233Z,2.80
2023-04-19T06:14:52.861Z,2.70
2023-04-19T06:17:24.802Z,2.70
2023-04-19T06:19:52.750Z,2.67
2023-04-19T06:22:19.565Z,2.40
2023-04-19T06:24:50.250Z,2.57
2023-04-19T06:27:17.294Z,2.10
2023-04-19T06:29:44.359Z,2.20
2023-04-19T06:32:11.190Z,2.30
2023-04-19T06:34:38.189Z,2.40
2023-04-19T06:37:05.369Z,2.07
2023-04-19T06:39:32.572Z,2.17
2023-04-19T06:41:59.379Z,1.90
2023-04-19T06:44:26.319Z,2.23
2023-04-19T06:46:53.224Z,2.10
2023-04-19T06:49:20.280Z,1.77
2023-04-19T06:51:47.137Z,1.90
2023-04-19T06:54:14.125Z,2.30
2023-04-19T06:56:49.300Z,1.90
2023-04-19T06:59:19.724Z,1.70
2023-04-19T07:01:47.752Z,2.00
2023-04-19T07:04:15.691Z,2.00
2023-04-19T07:06:42.971Z,2.00
2023-04-19T07:09:09.867Z,2.70
2023-04-19T07:11:36.720Z,2.00
2023-04-19T07:14:03.895Z,1.50
2023-04-19T07:16:31.229Z,3.70
2023-04-19T07:18:58.112Z,1.40
2023-04-19T07:21:28.822Z,1.90
2023-04-19T07:23:55.733Z,1.53
2023-04-19T07:26:22.691Z,1.57
2023-04-19T07:28:50.557Z,1.70
2023-04-19T07:31:18.902Z,1.30
2023-04-19T07:33:46.113Z,1.50
2023-04-19T07:36:13.101Z,1.60
2023-04-19T07:38:40.220Z,1.53
2023-04-19T07:41:07.338Z,1.23
2023-04-19T07:43:34.203Z,1.30
2023-04-19T07:46:01.644Z,1.20
2023-04-19T07:48:28.607Z,0.93
2023-04-19T07:50:55.517Z,1.50
2023-04-19T07:53:22.484Z,1.30
2023-04-19T07:55:49.598Z,1.03
2023-04-19T07:58:16.517Z,1.00
2023-04-19T08:00:43.576Z,1.37
2023-04-19T08:03:10.689Z,1.10
2023-04-19T08:05:37.763Z,1.10
2023-04-19T08:08:04.919Z,1.30
2023-04-19T08:10:32.188Z,1.07
2023-04-19T08:13:05.710Z,1.00
2023-04-19T08:18:07.618Z,1.40
2023-04-19T08:20:34.924Z,1.50
2023-04-19T08:23:07.520Z,1.10
2023-04-19T08:25:45.490Z,1.40
2023-04-19T08:28:12.914Z,1.30
2023-04-19T08:30:40.839Z,1.23
2023-04-19T08:33:07.783Z,1.10
2023-04-19T08:35:39.543Z,1.10
2023-04-19T08:38:06.651Z,1.03
2023-04-19T08:40:33.691Z,1.30
2023-04-19T08:43:05.371Z,1.20
2023-04-19T08:45:33.189Z,1.03
2023-04-19T08:48:02.582Z,1.47
2023-04-19T08:50:36.032Z,1.40
2023-04-19T08:53:23.881Z,1.47
2023-04-19T08:58:44.471Z,1.33
2023-04-19T09:01:31.121Z,1.50
2023-04-19T09:04:10.415Z,1.30
2023-04-19T09:06:47.405Z,1.23
2023-04-19T09:11:52.733Z,1.37
2023-04-19T09:14:21.710Z,1.37
2023-04-19T09:16:49.465Z,0.90
2023-04-19T09:19:24.958Z,1.07
2023-04-19T09:21:54.723Z,2.00
2023-04-19T09:27:30.425Z,1.30
2023-04-19T09:29:59.783Z,1.07
2023-04-19T09:32:27.630Z,1.67
2023-04-19T09:34:57.104Z,1.40
2023-04-19T09:37:44.368Z,1.20
2023-04-19T09:40:25.260Z,1.10
2023-04-19T09:48:11.738Z,1.57
2023-04-19T09:51:01.961Z,1.60
2023-04-19T09:53:35.548Z,1.90
2023-04-19T09:56:04.300Z,1.63
2023-04-19T09:58:46.277Z,1.90
2023-04-19T10:01:19.587Z,2.53
2023-04-19T10:03:49.548Z,2.70
2023-04-19T10:08:51.196Z,2.20
2023-04-19T10:11:22.215Z,2.90
2023-04-19T10:13:50.995Z,2.77
2023-04-19T10:16:20.136Z,1.73
2023-04-19T10:18:50.585Z,1.87
2023-04-19T10:21:18.170Z,2.60
2023-04-19T10:23:45.318Z,2.57
2023-04-19T10:26:12.327Z,2.70
2023-04-19T10:28:39.177Z,2.03
2023-04-19T10:31:06.049Z,2.20
2023-04-19T10:33:38.060Z,2.50
2023-04-19T10:36:08.852Z,2.10
2023-04-19T10:38:42.634Z,1.83
2023-04-19T10:41:15.516Z,2.30
2023-04-19T10:43:55.899Z,1.90
2023-04-19T10:46:23.373Z,2.40
2023-04-19T10:48:58.508Z,2.30
2023-04-19T10:51:32.924Z,2.10
2023-04-19T10:54:01.911Z,2.30
2023-04-19T10:56:34.868Z,2.50
2023-04-19T10:59:02.019Z,2.20
2023-04-19T11:01:47.110Z,2.20
2023-04-19T11:04:16.315Z,2.43
2023-04-19T11:06:55.232Z,2.40
2023-04-19T11:09:25.768Z,2.50
2023-04-19T11:11:54.383Z,2.00
2023-04-19T11:14:21.886Z,1.97
2023-04-19T11:16:49.113Z,1.83
2023-04-19T11:19:17.210Z,2.10
2023-04-19T11:21:46.984Z,2.40
2023-04-19T11:24:16.337Z,2.20
2023-04-19T11:26:46.484Z,2.00
2023-04-19T11:29:13.807Z,2.87
2023-04-19T11:31:43.869Z,2.80
2023-04-19T11:34:10.847Z,2.47
2023-04-19T11:36:48.182Z,2.40
2023-04-19T11:39:15.196Z,2.40
2023-04-19T11:41:44.482Z,2.10
2023-04-19T11:44:20.412Z,3.33
2023-04-19T11:47:01.590Z,2.50
2023-04-19T11:49:36.191Z,2.53
2023-04-19T11:52:06.559Z,3.57
2023-04-19T11:54:34.229Z,2.30
2023-04-19T11:57:06.319Z,2.40
2023-04-19T11:59:35.433Z,2.27
2023-04-19T12:02:13.131Z,2.30
2023-04-19T12:04:41.435Z,2.60
2023-04-19T12:07:10.756Z,2.60
2023-04-19T12:09:38.902Z,2.50
2023-04-19T12:12:07.062Z,2.13
2023-04-19T12:14:34.484Z,2.30
2023-04-19T12:17:08.902Z,2.73
2023-04-19T12:19:44.425Z,2.40
2023-04-19T12:22:14.623Z,2.40
2023-04-19T12:24:42.417Z,2.70
2023-04-19T12:28:14.538Z,2.70
2023-04-19T12:29:56.855Z,2.80
2023-04-19T12:32:24.115Z,2.57
2023-04-19T12:34:51.053Z,3.20
2023-04-19T12:37:17.951Z,2.40
2023-04-19T12:39:45.049Z,2.63
2023-04-19T12:42:11.828Z,2.40
2023-04-19T12:44:38.641Z,2.30
2023-04-19T12:47:05.418Z,2.70
2023-04-19T12:49:32.404Z,2.50
2023-04-19T12:51:59.080Z,2.10
2023-04-19T12:54:25.983Z,2.50
2023-04-19T12:56:53.045Z,2.50
2023-04-19T12:59:20.083Z,2.30
2023-04-19T13:01:47.065Z,2.00
2023-04-19T13:04:17.085Z,2.47
2023-04-19T13:06:44.404Z,2.43
2023-04-19T13:09:14.959Z,3.87
2023-04-19T13:11:42.209Z,2.50
2023-04-19T13:14:09.125Z,2.93
2023-04-19T13:16:35.952Z,1.90
2023-04-19T13:19:02.935Z,2.40
2023-04-19T13:21:29.793Z,2.10
2023-04-19T13:23:59.252Z,2.50
2023-04-19T13:26:26.485Z,2.63
2023-04-19T13:28:53.259Z,2.30
2023-04-19T13:31:20.309Z,2.63
2023-04-19T13:33:47.412Z,2.20
2023-04-19T13:36:14.464Z,4.13
2023-04-19T13:38:41.403Z,3.60
2023-04-19T13:41:08.409Z,3.13
2023-04-19T13:43:35.480Z,1.90
2023-04-19T13:46:02.383Z,2.33
2023-04-19T13:48:29.249Z,1.90
2023-04-19T13:50:57.222Z,1.90
2023-04-19T13:53:25.023Z,2.87
2023-04-19T13:55:52.756Z,2.20
2023-04-19T13:58:19.820Z,2.23
2023-04-19T14:00:48.575Z,2.30
2023-04-19T14:03:15.878Z,2.47
2023-04-19T14:05:43.346Z,2.17
2023-04-19T14:08:10.469Z,3.93
2023-04-19T14:10:37.520Z,4.23
2023-04-19T14:13:04.448Z,2.60
2023-04-19T14:15:31.381Z,2.80
2023-04-19T14:17:58.337Z,2.17
2023-04-19T14:20:25.843Z,2.33
2023-04-19T14:22:54.263Z,2.27
2023-04-19T14:25:21.369Z,3.77
2023-04-19T14:27:48.427Z,4.30
2023-04-19T14:30:15.617Z,4.23
2023-04-19T14:32:42.907Z,2.27
2023-04-19T14:35:11.541Z,3.93
2023-04-19T14:37:38.708Z,2.73
2023-04-19T14:40:06.159Z,4.10
2023-04-19T14:42:33.073Z,5.23
2023-04-19T14:44:59.985Z,4.30
2023-04-19T14:47:26.865Z,4.83
2023-04-19T14:49:53.917Z,3.20
2023-04-19T14:52:21.609Z,2.60
2023-04-19T14:54:48.607Z,2.40
2023-04-19T14:57:15.749Z,2.60
2023-04-19T14:59:42.649Z,2.60
2023-04-19T15:02:11.012Z,3.20
2023-04-19T15:04:40.842Z,2.67
2023-04-19T15:07:08.342Z,2.87
2023-04-19T15:09:35.446Z,1.90
2023-04-19T15:12:02.449Z,2.30
2023-04-19T15:14:29.488Z,3.43
2023-04-19T15:16:56.485Z,2.40
2023-04-19T15:19:23.511Z,2.37
2023-04-19T15:21:50.543Z,2.60
2023-04-19T15:24:17.697Z,2.83
2023-04-19T15:26:44.729Z,2.50
2023-04-19T15:29:11.946Z,2.53
2023-04-19T15:31:39.719Z,2.60
2023-04-19T15:34:06.732Z,6.83
2023-04-19T15:36:33.623Z,7.80
2023-04-19T15:39:00.775Z,5.10
2023-04-19T15:41:27.696Z,4.00
2023-04-19T15:43:54.644Z,4.13
2023-04-19T15:46:21.663Z,2.23
2023-04-19T15:48:51.579Z,2.43
2023-04-19T15:51:18.675Z,2.10
2023-04-19T15:53:48.614Z,1.80
2023-04-19T15:56:15.767Z,2.20
2023-04-19T15:58:42.797Z,2.40
2023-04-19T16:01:13.522Z,2.13
2023-04-19T16:03:41.679Z,2.70
2023-04-19T16:06:08.680Z,3.80
2023-04-19T16:08:35.604Z,1.90
2023-04-19T16:11:02.604Z,2.33
2023-04-19T16:13:31.377Z,2.70
2023-04-19T16:15:58.916Z,2.03
2023-04-19T16:18:25.637Z,2.43
2023-04-19T16:20:54.435Z,2.50
2023-04-19T16:23:21.305Z,2.03
2023-04-19T16:25:49.626Z,2.40
2023-04-19T16:28:16.728Z,2.27
2023-04-19T16:30:45.592Z,2.40
2023-04-19T16:33:12.486Z,2.03
2023-04-19T16:35:39.771Z,2.30
2023-04-19T16:38:07.654Z,2.23
2023-04-19T16:40:34.752Z,2.27
2023-04-19T16:43:01.847Z,2.00
2023-04-19T16:45:28.833Z,2.00
2023-04-19T16:47:55.976Z,2.10
2023-04-19T16:50:22.909Z,2.23
2023-04-19T16:52:49.822Z,1.87
2023-04-19T16:55:16.886Z,2.13
2023-04-19T16:57:43.889Z,3.10
2023-04-19T17:00:11.438Z,2.60
2023-04-19T17:02:38.779Z,2.37
2023-04-19T17:05:06.914Z,2.50
2023-04-19T17:07:33.866Z,4.20
2023-04-19T17:10:00.980Z,7.30
2023-04-19T17:12:27.771Z,2.30
2023-04-19T17:14:54.639Z,2.47
2023-04-19T17:17:21.739Z,2.23
2023-04-19T17:19:48.589Z,2.30
2023-04-19T17:22:16.199Z,2.40
2023-04-19T17:24:43.464Z,2.90
2023-04-19T17:27:10.717Z,2.23
2023-04-19T17:29:37.632Z,2.30
2023-04-19T17:32:05.083Z,2.30
2023-04-19T17:34:35.347Z,2.30
2023-04-19T17:37:03.503Z,2.00
2023-04-19T17:39:30.443Z,2.30
2023-04-19T17:41:57.471Z,2.50
2023-04-19T17:44:24.641Z,2.40
2023-04-19T17:46:51.616Z,2.50
2023-04-19T17:49:20.361Z,2.13
2023-04-19T17:51:48.085Z,2.10
2023-04-19T17:54:16.070Z,2.10
2023-04-19T17:56:43.065Z,2.10
2023-04-19T17:59:09.906Z,2.37
2023-04-19T18:01:36.978Z,2.30
2023-04-19T18:04:04.472Z,1.80
2023-04-19T18:06:31.999Z,2.20
2023-04-19T18:08:59.134Z,2.17
2023-04-19T18:11:28.270Z,2.10
2023-04-19T18:13:55.892Z,2.00
2023-04-19T18:16:22.882Z,2.00
2023-04-19T18:18:50.024Z,1.90
2023-04-19T18:21:19.415Z,2.70
2023-04-19T18:23:49.338Z,2.30
2023-04-19T18:26:16.447Z,2.17
2023-04-19T18:28:43.464Z,2.73
2023-04-19T18:31:10.700Z,2.13
2023-04-19T18:33:37.924Z,2.17
2023-04-19T18:36:06.214Z,2.37
2023-04-19T18:38:33.165Z,2.33
2023-04-19T18:41:00.408Z,1.93
2023-04-19T18:43:30.557Z,2.27
2023-04-19T18:45:58.230Z,1.90
2023-04-19T18:48:28.659Z,2.00
2023-04-19T18:50:57.167Z,2.50
2023-04-19T18:53:27.921Z,2.40
2023-04-19T18:55:57.913Z,2.30
2023-04-19T18:58:26.396Z,2.10
2023-04-19T19:00:53.494Z,2.37
2023-04-19T19:03:49.792Z,2.50
2023-04-19T19:06:10.435Z,2.40
2023-04-19T19:08:37.867Z,2.30
2023-04-19T19:13:36.104Z,2.33
2023-04-19T19:16:03.123Z,2.13
2023-04-19T19:18:30.039Z,2.43
2023-04-19T19:21:03.546Z,2.43
2023-04-19T19:26:01.161Z,2.50
2023-04-19T19:28:28.148Z,2.23
2023-04-19T19:30:55.129Z,2.30
2023-04-19T19:33:22.688Z,2.10
2023-04-19T19:35:50.253Z,1.90
2023-04-19T19:38:17.251Z,2.30
2023-04-19T19:41:20.680Z,2.50
2023-04-19T19:43:31.245Z,2.70
2023-04-19T19:45:58.433Z,2.47
2023-04-19T19:48:25.769Z,2.47
2023-04-19T19:53:22.582Z,2.80
2023-04-19T19:55:49.424Z,2.87
2023-04-19T19:58:42.938Z,2.77
2023-04-19T20:01:03.713Z,2.80
2023-04-19T20:03:37.839Z,2.87
2023-04-19T20:08:41.377Z,4.57
2023-04-19T20:11:10.793Z,3.80
2023-04-19T20:13:37.769Z,3.90
2023-04-19T20:16:04.667Z,4.10
2023-04-19T20:18:31.600Z,4.20
2023-04-19T20:20:58.895Z,3.73
2023-04-19T20:23:26.759Z,3.67
2023-04-19T20:25:53.712Z,3.13
2023-04-19T20:28:20.794Z,2.70
2023-04-19T20:30:47.643Z,2.63
2023-04-19T20:33:14.574Z,2.80
2023-04-19T20:35:42.375Z,2.93
2023-04-19T20:38:09.998Z,2.80
2023-04-19T20:40:37.426Z,2.87
2023-04-19T20:43:04.589Z,2.33
2023-04-19T20:45:31.551Z,2.80
2023-04-19T20:47:58.810Z,2.80
2023-04-19T20:50:25.996Z,3.10
2023-04-19T20:52:52.943Z,3.00
2023-04-19T20:55:19.765Z,3.10
2023-04-19T20:57:46.842Z,2.83
2023-04-19T21:00:16.999Z,2.70
2023-04-19T21:02:44.843Z,2.70
2023-04-19T21:05:12.089Z,2.90
2023-04-19T21:07:39.283Z,2.70
2023-04-19T21:10:08.046Z,2.73
2023-04-19T21:12:35.332Z,3.33
2023-04-19T21:15:04.930Z,3.40
2023-04-19T21:17:31.718Z,3.30
2023-04-19T21:19:58.943Z,3.37
2023-04-19T21:22:25.758Z,3.03
2023-04-19T21:24:52.421Z,3.80
2023-04-19T21:27:21.829Z,3.60
2023-04-19T21:29:48.538Z,3.83
2023-04-19T21:32:15.524Z,3.30
2023-04-19T21:34:42.297Z,3.30
2023-04-19T21:37:08.969Z,3.33
2023-04-19T21:39:35.781Z,3.30
2023-04-19T21:42:02.557Z,3.20
2023-04-19T21:44:29.568Z,3.50
2023-04-19T21:46:56.418Z,3.27
2023-04-19T21:49:23.407Z,3.50
2023-04-19T21:51:51.388Z,2.83
2023-04-19T21:54:30.638Z,3.10
2023-04-19T21:57:00.739Z,3.00
2023-04-19T21:59:29.286Z,2.73
2023-04-19T22:01:56.041Z,3.10
2023-04-19T22:04:22.983Z,2.47
2023-04-19T22:06:49.815Z,2.70
2023-04-19T22:09:19.721Z,2.90
2023-04-19T22:11:46.404Z,2.70
2023-04-19T22:14:13.550Z,2.87
2023-04-19T22:16:40.550Z,3.40
2023-04-19T22:19:08.011Z,2.87
2023-04-19T22:21:34.748Z,2.73
2023-04-19T22:24:01.501Z,4.00
2023-04-19T22:26:29.439Z,2.50
2023-04-19T22:28:56.199Z,2.53
2023-04-19T22:31:23.007Z,2.53
2023-04-19T22:33:49.747Z,2.53
2023-04-19T22:36:16.728Z,2.30
2023-04-19T22:38:43.766Z,3.00
2023-04-19T22:41:10.737Z,2.80
2023-04-19T22:43:38.400Z,2.10
2023-04-19T22:46:05.724Z,2.50
2023-04-19T22:48:33.204Z,2.30
2023-04-19T22:51:01.044Z,2.33
2023-04-19T22:53:28.063Z,2.33
2023-04-19T22:55:55.347Z,2.20
2023-04-19T22:58:22.441Z,2.33
2023-04-19T23:00:50.634Z,2.80
2023-04-19T23:03:17.758Z,2.43
2023-04-19T23:05:44.777Z,2.63
2023-04-19T23:08:13.810Z,2.53
2023-04-19T23:10:42.750Z,2.33
2023-04-19T23:13:12.441Z,2.20
2023-04-19T23:15:39.586Z,2.33
2023-04-19T23:18:06.713Z,2.33
2023-04-19T23:20:33.643Z,2.70
2023-04-19T23:23:00.823Z,2.20
2023-04-19T23:25:27.740Z,2.57
2023-04-19T23:27:54.823Z,2.43
2023-04-19T23:30:21.954Z,2.20
2023-04-19T23:32:48.922Z,2.33
2023-04-19T23:35:15.959Z,2.30
2023-04-19T23:37:42.868Z,2.93
2023-04-19T23:40:10.569Z,2.83
2023-04-19T23:42:38.715Z,2.77
2023-04-19T23:45:07.083Z,2.57
2023-04-19T23:47:34.328Z,2.30
2023-04-19T23:50:01.398Z,2.40
2023-04-19T23:52:28.373Z,2.13
2023-04-19T23:54:55.480Z,2.10
2023-04-19T23:57:23.147Z,2.20
2023-04-19T23:59:50.390Z,2.33
